Map

Track Data

SID SEASON NUMBER BASIN SUBBASIN NAME ISO_TIME NATURE LAT LON WMO_WIND WMO_PRES WMO_AGENCY TRACK_TYPE DIST2LAND LANDFALL IFLAG USA_AGENCY USA_ATCF_ID USA_LAT USA_LON USA_RECORD USA_STATUS USA_WIND USA_PRES USA_SSHS USA_R34_NE USA_R34_SE USA_R34_SW USA_R34_NW USA_R50_NE USA_R50_SE USA_R50_SW USA_R50_NW USA_R64_NE USA_R64_SE USA_R64_SW USA_R64_NW USA_POCI USA_ROCI USA_RMW USA_EYE TOKYO_LAT TOKYO_LON TOKYO_GRADE TOKYO_WIND TOKYO_PRES TOKYO_R50_DIR TOKYO_R50_LONG TOKYO_R50_SHORT TOKYO_R30_DIR TOKYO_R30_LONG TOKYO_R30_SHORT TOKYO_LAND CMA_LAT CMA_LON CMA_CAT CMA_WIND CMA_PRES HKO_LAT HKO_LON HKO_CAT HKO_WIND HKO_PRES NEWDELHI_LAT NEWDELHI_LON NEWDELHI_GRADE NEWDELHI_WIND NEWDELHI_PRES NEWDELHI_CI NEWDELHI_DP NEWDELHI_POCI REUNION_LAT REUNION_LON REUNION_TYPE REUNION_WIND REUNION_PRES REUNION_TNUM REUNION_CI REUNION_RMW REUNION_R34_NE REUNION_R34_SE REUNION_R34_SW REUNION_R34_NW REUNION_R50_NE REUNION_R50_SE REUNION_R50_SW REUNION_R50_NW REUNION_R64_NE REUNION_R64_SE REUNION_R64_SW REUNION_R64_NW BOM_LAT BOM_LON BOM_TYPE BOM_WIND BOM_PRES BOM_TNUM BOM_CI BOM_RMW BOM_R34_NE BOM_R34_SE BOM_R34_SW BOM_R34_NW BOM_R50_NE BOM_R50_SE BOM_R50_SW BOM_R50_NW BOM_R64_NE BOM_R64_SE BOM_R64_SW BOM_R64_NW BOM_ROCI BOM_POCI BOM_EYE BOM_POS_METHOD BOM_PRES_METHOD NADI_LAT NADI_LON NADI_CAT NADI_WIND NADI_PRES WELLINGTON_LAT WELLINGTON_LON WELLINGTON_WIND WELLINGTON_PRES DS824_LAT DS824_LON DS824_STAGE DS824_WIND DS824_PRES TD9636_LAT TD9636_LON TD9636_STAGE TD9636_WIND TD9636_PRES TD9635_LAT TD9635_LON TD9635_WIND TD9635_PRES TD9635_ROCI NEUMANN_LAT NEUMANN_LON NEUMANN_CLASS NEUMANN_WIND NEUMANN_PRES MLC_LAT MLC_LON MLC_CLASS MLC_WIND MLC_PRES USA_GUST BOM_GUST BOM_GUST_PER REUNION_GUST REUNION_GUST_PER USA_SEAHGT USA_SEARAD_NE USA_SEARAD_SE USA_SEARAD_SW USA_SEARAD_NW STORM_SPEED STORM_DIR
1940341N11126 1940 83 WP MM NOT_NAMED 1940-12-05 12:00:00 NR 11.3000 126.000 main 39 31 __________O___ -1 11.3000 126.000 3 10 330
1940341N11126 1940 83 WP MM NOT_NAMED 1940-12-05 15:00:00 NR 11.7360 125.743 main 21 10 __________P___ -1 11.7360 125.743 3 10 329
1940341N11126 1940 83 WP MM NOT_NAMED 1940-12-05 18:00:00 NR 12.1575 125.478 main 0 0 __________P___ -1 12.1575 125.478 3 10 327
1940341N11126 1940 83 WP MM NOT_NAMED 1940-12-05 21:00:00 NR 12.5503 125.199 main 11 11 __________P___ -1 12.5503 125.199 3 9 323
1940341N11126 1940 83 WP MM NOT_NAMED 1940-12-06 00:00:00 NR 12.9000 124.900 main 44 44 __________O___ -1 12.9000 124.900 4 9 317
1940341N11126 1940 83 WP MM NOT_NAMED 1940-12-06 03:00:00 NR 13.1973 124.579 main 54 15 __________P___ -1 13.1973 124.579 4 8 311
1940341N11126 1940 83 WP MM NOT_NAMED 1940-12-06 06:00:00 NR 13.4527 124.255 main 10 0 __________P___ -1 13.4527 124.255 4 8 309
1940341N11126 1940 83 WP MM NOT_NAMED 1940-12-06 09:00:00 NR 13.6817 123.954 main 0 0 __________P___ -1 13.6817 123.954 4 7 310
1940341N11126 1940 83 WP MM NOT_NAMED 1940-12-06 12:00:00 NR 13.9000 123.700 main 0 0 __________O___ -1 13.9000 123.700 4 6 318
1940341N11126 1940 83 WP MM NOT_NAMED 1940-12-06 15:00:00 NR 14.1360 123.528 main 22 22 __________P___ -1 14.1360 123.528 4 5 328
1940341N11126 1940 83 WP MM NOT_NAMED 1940-12-06 18:00:00 NR 14.3647 123.405 main 46 46 __________P___ -1 14.3647 123.405 4 5 334
1940341N11126 1940 83 WP MM NOT_NAMED 1940-12-06 21:00:00 NR 14.5861 123.303 main 62 62 __________P___ -1 14.5861 123.303 4 5 336
1940341N11126 1940 83 WP MM NOT_NAMED 1940-12-07 00:00:00 NR 14.8000 123.200 main 74 74 __________O___ -1 14.8000 123.200 4 5 332
1940341N11126 1940 83 WP MM NOT_NAMED 1940-12-07 03:00:00 NR 15.0153 123.065 main 92 90 __________P___ -1 15.0153 123.065 4 5 328
1940341N11126 1940 83 WP MM NOT_NAMED 1940-12-07 06:00:00 NR 15.2224 122.922 main 111 108 __________P___ -1 15.2224 122.922 4 5 325
1940341N11126 1940 83 WP MM NOT_NAMED 1940-12-07 09:00:00 NR 15.4184 122.768 main 108 77 __________P___ -1 15.4184 122.768 4 5 320
1940341N11126 1940 83 WP MM NOT_NAMED 1940-12-07 12:00:00 NR 15.6000 122.600 main 77 46 __________O___ -1 15.6000 122.600 4 5 316
1940341N11126 1940 83 WP MM NOT_NAMED 1940-12-07 15:00:00 NR 15.7654 122.415 main 46 24 __________P___ -1 15.7654 122.415 4 5 311
1940341N11126 1940 83 WP MM NOT_NAMED 1940-12-07 18:00:00 NR 15.9177 122.218 main 24 0 __________P___ -1 15.9177 122.218 4 5 307
1940341N11126 1940 83 WP MM NOT_NAMED 1940-12-07 21:00:00 NR 16.0611 122.011 main 10 0 __________P___ -1 16.0611 122.011 4 5 305
1940341N11126 1940 83 WP MM NOT_NAMED 1940-12-08 00:00:00 NR 16.2000 121.800 main 0 __________O___ -1 16.2000 121.800 7 5 305

Digital Typhoon Data and Search

About IBTrACS Database

This database is a web-friendly format of International Best Track Archive for Climate Stewardship (IBTrACS), a global best track data archive curated by NOAA dating back to 1842.

Updated: 2021-10-21